createdAt,value
2023-03-30T00:01:33.952Z,97.53
2023-03-30T00:06:39.364Z,97.84
2023-03-30T00:11:43.395Z,98.11
2023-03-30T00:16:46.078Z,98.08
2023-03-30T00:21:49.782Z,98.24
2023-03-30T00:26:52.339Z,97.95
2023-03-30T00:31:55.099Z,98.25
2023-03-30T00:36:59.304Z,97.75
2023-03-30T00:42:02.152Z,97.28
2023-03-30T00:47:05.212Z,97.06
2023-03-30T00:52:10.058Z,96.34
2023-03-30T00:57:13.778Z,97.04
2023-03-30T01:02:19.170Z,96.39
2023-03-30T01:07:24.419Z,96.77
2023-03-30T01:12:27.743Z,96.34
2023-03-30T01:17:49.648Z,95.72
2023-03-30T01:23:40.844Z,95.31
2023-03-30T01:29:13.791Z,95.57
2023-03-30T01:34:43.148Z,94.74
2023-03-30T01:39:48.317Z,94.54
2023-03-30T01:45:20.465Z,94.54
2023-03-30T01:50:33.723Z,95.15
2023-03-30T01:55:44.251Z,93.84
2023-03-30T02:00:51.217Z,93.80
2023-03-30T02:05:59.810Z,93.45
2023-03-30T02:11:02.919Z,94.38
2023-03-30T02:16:27.312Z,95.25
2023-03-30T02:21:31.933Z,97.08
2023-03-30T02:26:35.720Z,97.12
2023-03-30T02:31:38.468Z,98.20
2023-03-30T02:37:03.867Z,96.84
2023-03-30T02:42:21.563Z,96.22
2023-03-30T02:47:47.604Z,95.76
2023-03-30T02:53:08.226Z,96.90
2023-03-30T02:58:23.968Z,97.33
2023-03-30T03:03:45.428Z,96.04
2023-03-30T03:08:48.282Z,96.09
2023-03-30T03:13:57.471Z,95.55
2023-03-30T03:19:01.562Z,95.82
2023-03-30T03:24:05.500Z,95.84
2023-03-30T03:29:37.619Z,95.97
2023-03-30T03:34:44.892Z,95.19
2023-03-30T03:39:49.259Z,95.09
2023-03-30T03:44:52.314Z,95.19
2023-03-30T03:49:55.042Z,95.53
2023-03-30T03:54:57.790Z,94.57
2023-03-30T04:00:00.798Z,94.40
2023-03-30T04:05:03.762Z,93.16
2023-03-30T04:10:07.682Z,93.69
2023-03-30T04:15:21.559Z,92.60
2023-03-30T04:20:49.423Z,91.83
2023-03-30T04:26:18.505Z,91.78
2023-03-30T04:31:24.086Z,92.52
2023-03-30T04:36:44.891Z,92.74
2023-03-30T04:42:14.461Z,92.17
2023-03-30T04:47:51.433Z,91.74
2023-03-30T04:53:00.895Z,91.07
2023-03-30T04:58:42.337Z,91.34
2023-03-30T05:04:14.086Z,90.79
2023-03-30T05:09:55.333Z,90.76
2023-03-30T05:15:16.469Z,91.37
2023-03-30T05:20:40.068Z,90.96
2023-03-30T05:26:01.442Z,90.85
2023-03-30T05:31:33.410Z,89.33
2023-03-30T05:37:08.520Z,90.05
2023-03-30T05:42:11.969Z,89.46
2023-03-30T05:47:35.757Z,88.42
2023-03-30T05:53:01.541Z,87.45
2023-03-30T05:58:39.558Z,86.33
2023-03-30T06:03:48.931Z,85.78
2023-03-30T06:08:52.222Z,84.75
2023-03-30T06:13:59.249Z,83.91
2023-03-30T06:19:03.829Z,81.90
2023-03-30T06:24:06.840Z,80.66
2023-03-30T06:29:13.395Z,79.55
2023-03-30T06:34:17.609Z,76.56
2023-03-30T06:39:22.010Z,76.47
2023-03-30T06:44:25.478Z,75.05
2023-03-30T06:49:28.285Z,73.43
2023-03-30T06:55:00.628Z,72.67
2023-03-30T07:00:09.256Z,71.02
2023-03-30T07:05:15.874Z,70.63
2023-03-30T07:10:53.726Z,69.21
2023-03-30T07:15:59.419Z,69.83
2023-03-30T07:21:02.752Z,71.39
2023-03-30T07:26:09.944Z,72.11
2023-03-30T07:31:45.257Z,72.53
2023-03-30T07:36:49.543Z,71.62
2023-03-30T07:41:52.953Z,71.28
2023-03-30T07:46:56.158Z,69.61
2023-03-30T07:52:01.555Z,68.50
2023-03-30T07:57:26.918Z,69.24
2023-03-30T08:02:29.709Z,69.12
2023-03-30T08:07:34.364Z,71.76
2023-03-30T08:12:46.017Z,74.65
2023-03-30T08:17:48.764Z,77.03
2023-03-30T08:22:51.840Z,77.51
2023-03-30T08:27:54.590Z,78.67
2023-03-30T08:32:57.361Z,78.91
2023-03-30T08:38:00.739Z,78.58
2023-03-30T08:43:09.466Z,79.28
2023-03-30T08:48:18.634Z,79.28
2023-03-30T08:53:21.449Z,78.85
2023-03-30T08:58:40.245Z,78.88
2023-03-30T09:03:55.976Z,79.08
2023-03-30T09:08:58.975Z,80.00
2023-03-30T09:14:04.961Z,80.52
2023-03-30T09:19:15.370Z,80.34
2023-03-30T09:24:24.838Z,81.23
2023-03-30T09:29:35.346Z,80.99
2023-03-30T09:34:47.435Z,81.30
2023-03-30T09:39:51.238Z,82.70
2023-03-30T09:45:20.606Z,83.32
2023-03-30T09:50:29.295Z,82.23
2023-03-30T09:55:34.785Z,81.68
2023-03-30T10:00:38.056Z,80.53
2023-03-30T10:05:41.592Z,80.14
2023-03-30T10:10:44.416Z,80.90
2023-03-30T10:15:53.325Z,81.27
2023-03-30T10:21:15.083Z,81.37
2023-03-30T10:26:19.799Z,82.03
2023-03-30T10:31:27.173Z,81.38
2023-03-30T10:36:34.709Z,80.00
2023-03-30T10:41:39.967Z,79.90
2023-03-30T10:46:43.403Z,80.24
2023-03-30T10:52:40.982Z,80.58
2023-03-30T10:58:06.304Z,78.88
2023-03-30T11:03:42.174Z,78.88
2023-03-30T11:08:48.833Z,78.20
2023-03-30T11:14:02.046Z,78.45
2023-03-30T11:19:22.171Z,78.84
2023-03-30T11:24:27.929Z,79.40
2023-03-30T11:29:31.473Z,79.01
2023-03-30T11:35:05.961Z,78.85
2023-03-30T11:40:19.153Z,79.41
2023-03-30T11:45:40.571Z,79.80
2023-03-30T11:50:46.261Z,79.67
2023-03-30T11:56:12.050Z,79.32
2023-03-30T12:01:23.579Z,80.10
2023-03-30T12:06:42.511Z,80.57
2023-03-30T12:12:07.818Z,81.08
2023-03-30T12:17:25.942Z,80.20
2023-03-30T12:22:35.607Z,79.74
2023-03-30T12:27:59.345Z,80.46
2023-03-30T12:33:20.366Z,79.98
2023-03-30T12:38:26.308Z,80.86
2023-03-30T12:43:55.518Z,80.62
2023-03-30T12:49:15.631Z,81.79
2023-03-30T12:54:47.750Z,82.13
2023-03-30T13:00:10.453Z,82.11
2023-03-30T13:05:27.331Z,81.29
2023-03-30T13:10:30.077Z,80.56
2023-03-30T13:15:49.502Z,80.20
2023-03-30T13:20:55.125Z,80.65
2023-03-30T13:25:57.751Z,81.16
2023-03-30T13:31:24.873Z,81.55
2023-03-30T13:36:34.058Z,81.02
2023-03-30T13:41:53.454Z,81.01
2023-03-30T13:47:23.000Z,80.82
2023-03-30T13:52:38.683Z,80.50
2023-03-30T13:57:42.498Z,80.74
2023-03-30T14:02:45.183Z,81.11
2023-03-30T14:07:49.210Z,81.21
2023-03-30T14:12:56.390Z,82.32
2023-03-30T14:18:01.919Z,81.75
2023-03-30T14:23:05.755Z,81.68
2023-03-30T14:28:20.193Z,81.98
2023-03-30T14:33:23.770Z,82.21
2023-03-30T14:38:34.889Z,82.41
2023-03-30T14:43:40.958Z,82.25
2023-03-30T14:48:48.101Z,82.94
2023-03-30T14:53:54.859Z,82.91
2023-03-30T14:58:58.485Z,82.90
2023-03-30T15:04:17.940Z,83.35
2023-03-30T15:09:25.086Z,83.32
2023-03-30T15:14:36.925Z,83.76
2023-03-30T15:19:39.863Z,83.56
2023-03-30T15:24:43.155Z,84.13
2023-03-30T15:29:47.295Z,84.59
2023-03-30T15:35:03.180Z,85.01
2023-03-30T15:40:25.872Z,85.35
2023-03-30T15:45:36.267Z,86.04
2023-03-30T15:50:39.534Z,85.46
2023-03-30T15:55:45.565Z,86.29
2023-03-30T16:00:51.089Z,85.56
2023-03-30T16:05:53.926Z,86.15
2023-03-30T16:10:57.813Z,85.15
2023-03-30T16:16:00.576Z,86.40
2023-03-30T16:21:05.023Z,86.51
2023-03-30T16:26:10.486Z,86.46
2023-03-30T16:31:19.654Z,86.88
2023-03-30T16:36:24.808Z,87.17
2023-03-30T16:41:27.520Z,87.06
2023-03-30T16:46:30.253Z,87.13
2023-03-30T16:51:33.033Z,86.25
2023-03-30T16:56:36.106Z,86.28
2023-03-30T17:01:38.827Z,86.57
2023-03-30T17:06:41.424Z,86.57
2023-03-30T17:11:49.557Z,87.39
2023-03-30T17:16:52.174Z,87.28
2023-03-30T17:21:54.737Z,86.69
2023-03-30T17:26:58.156Z,87.28
2023-03-30T17:32:00.908Z,87.28
2023-03-30T17:37:03.673Z,86.82
2023-03-30T17:42:06.436Z,86.56
2023-03-30T17:47:09.331Z,87.32
2023-03-30T17:52:12.646Z,86.67
2023-03-30T17:57:15.765Z,86.60
2023-03-30T18:02:18.494Z,86.05
2023-03-30T18:07:21.173Z,86.86
2023-03-30T18:12:23.856Z,86.72
2023-03-30T18:17:26.502Z,87.21
2023-03-30T18:22:29.428Z,87.12
2023-03-30T18:27:32.923Z,86.96
2023-03-30T18:32:46.646Z,86.45
2023-03-30T18:37:54.651Z,86.85
2023-03-30T18:42:57.535Z,87.26
2023-03-30T18:48:01.448Z,86.87
2023-03-30T18:53:07.411Z,86.64
2023-03-30T18:58:22.168Z,87.29
2023-03-30T19:03:25.808Z,87.45
2023-03-30T19:08:29.025Z,87.53
2023-03-30T19:13:31.690Z,87.17
2023-03-30T19:18:35.083Z,87.62
2023-03-30T19:23:37.689Z,87.43
2023-03-30T19:28:40.652Z,88.56
2023-03-30T19:33:43.358Z,88.30
2023-03-30T19:38:46.462Z,88.65
2023-03-30T19:43:50.310Z,88.85
2023-03-30T19:48:53.048Z,88.88
2023-03-30T19:53:57.782Z,89.14
2023-03-30T19:59:00.534Z,88.75
2023-03-30T20:04:03.656Z,88.82
2023-03-30T20:09:06.458Z,89.07
2023-03-30T20:14:08.979Z,88.93
2023-03-30T20:19:28.823Z,89.59
2023-03-30T20:24:33.231Z,89.67
2023-03-30T20:29:36.343Z,89.69
2023-03-30T20:34:38.994Z,90.01
2023-03-30T20:39:42.058Z,89.58
2023-03-30T20:44:50.520Z,90.30
2023-03-30T20:49:55.939Z,89.85
2023-03-30T20:54:59.758Z,90.10
2023-03-30T21:00:02.832Z,89.82
2023-03-30T21:05:06.717Z,90.17
2023-03-30T21:10:09.963Z,90.34
2023-03-30T21:15:13.002Z,90.53
2023-03-30T21:20:15.999Z,89.89
2023-03-30T21:25:18.560Z,90.07
2023-03-30T21:30:21.333Z,90.02
2023-03-30T21:35:24.250Z,90.27
2023-03-30T21:40:26.880Z,90.19
2023-03-30T21:45:29.441Z,89.46
2023-03-30T21:50:32.048Z,89.79
2023-03-30T21:55:34.674Z,89.88
2023-03-30T22:00:37.231Z,89.68
2023-03-30T22:05:42.264Z,89.36
2023-03-30T22:10:45.072Z,89.77
2023-03-30T22:15:58.007Z,89.67
2023-03-30T22:21:02.612Z,89.40
2023-03-30T22:26:06.836Z,88.92
2023-03-30T22:31:12.142Z,89.35
2023-03-30T22:36:20.672Z,88.54
2023-03-30T22:41:24.890Z,88.51
2023-03-30T22:46:28.132Z,87.98
2023-03-30T22:51:31.155Z,87.81
2023-03-30T22:56:33.739Z,88.29
2023-03-30T23:01:37.297Z,87.09
2023-03-30T23:06:40.193Z,87.15
2023-03-30T23:11:45.936Z,86.90
2023-03-30T23:16:48.756Z,86.65
2023-03-30T23:21:52.598Z,86.60
2023-03-30T23:26:55.559Z,86.89
2023-03-30T23:31:58.590Z,87.34
2023-03-30T23:37:01.464Z,87.05
2023-03-30T23:42:04.459Z,86.81
2023-03-30T23:47:07.244Z,86.90
2023-03-30T23:52:09.886Z,87.00
2023-03-30T23:57:12.700Z,87.29
